NCAR-RAP Real-Time Weather Data

Output produced by METARs form (08 May 2021  01:23 UTC)
found at http://weather.rap.ucar.edu/surface/
 
KBTR 080053Z 00000KT 10SM CLR 24/12 A3008 RMK AO2 SLP184 T02390122
KBTR 072353Z 35003KT 10SM CLR 27/11 A3007 RMK AO2 SLP180 T02670106 10289 20267 56014
KBTR 072253Z 35005KT 10SM CLR 28/10 A3008 RMK AO2 SLP187 T02780100
KBTR 072153Z 35009KT 10SM CLR 28/09 A3009 RMK AO2 SLP188 T02830094
KBTR 072053Z 29009KT 10SM CLR 28/09 A3011 RMK AO2 SLP195 T02830094 58020
KBTR 071953Z VRB06KT 10SM CLR 29/12 A3013 RMK AO2 SLP202 T02890117
KBTR 071853Z 33008KT 300V020 10SM CLR 28/11 A3015 RMK AO2 SLP209 T02830106
KBTR 071753Z 10SM CLR 27/09 A3017 RMK AO2 SLP215 T02720094 10278 20161 58011
KBTR 071653Z VRB04KT 10SM CLR 27/10 A3019 RMK AO2 SLP222 T02670100
KBTR 071553Z 36005KT 10SM CLR 26/12 A3020 RMK AO2 SLP225 T02560122
KBTR 071453Z 01004KT 10SM CLR 23/13 A3020 RMK AO2 SLP226 T02330128 51017
KBTR 071353Z 03005KT 10SM CLR 21/13 A3019 RMK AO2 SLP222 T02110128
KBTR 071253Z 31003KT 10SM CLR 18/14 A3018 RMK AO2 SLP218 T01830144
KBTR 071153Z 32005KT 10SM CLR 16/13 A3015 RMK AO2 SLP209 T01610133 10161 20133 53014
KBTR 071053Z 00000KT 10SM FEW002 14/12 A3013 RMK AO2 SLP200 T01390122